sensor_id;sensor_type;location;lat;lon;timestamp;pressure;altitude;pressure_sealevel;temperature;humidity
41513;BME280;27244;59.940;30.280;2023-11-22T00:01:48;102422.66;;;23.68;29.47
41513;BME280;27244;59.940;30.280;2023-11-22T00:04:16;102423.88;;;23.67;29.61
41513;BME280;27244;59.940;30.280;2023-11-22T00:06:43;102416.63;;;23.66;29.42
41513;BME280;27244;59.940;30.280;2023-11-22T00:09:10;102413.41;;;23.64;29.25
41513;BME280;27244;59.940;30.280;2023-11-22T00:11:37;102415.44;;;23.64;29.11
41513;BME280;27244;59.940;30.280;2023-11-22T00:14:04;102410.22;;;23.62;28.99
41513;BME280;27244;59.940;30.280;2023-11-22T00:16:31;102411.41;;;23.61;28.93
41513;BME280;27244;59.940;30.280;2023-11-22T00:18:59;102407.78;;;23.61;29.02
41513;BME280;27244;59.940;30.280;2023-11-22T00:21:27;102406.16;;;23.60;28.75
41513;BME280;27244;59.940;30.280;2023-11-22T00:23:54;102397.72;;;23.60;28.66
41513;BME280;27244;59.940;30.280;2023-11-22T00:26:21;102403.78;;;23.58;28.59
41513;BME280;27244;59.940;30.280;2023-11-22T00:28:54;102397.34;;;23.58;28.52
41513;BME280;27244;59.940;30.280;2023-11-22T00:31:21;102394.91;;;23.56;28.59
41513;BME280;27244;59.940;30.280;2023-11-22T00:33:48;102385.66;;;23.56;28.30
41513;BME280;27244;59.940;30.280;2023-11-22T00:36:15;102382.03;;;23.55;28.27
41513;BME280;27244;59.940;30.280;2023-11-22T00:38:45;102381.25;;;23.55;27.99
41513;BME280;27244;59.940;30.280;2023-11-22T00:41:11;102374.00;;;23.53;27.98
41513;BME280;27244;59.940;30.280;2023-11-22T00:43:41;102384.44;;;23.53;28.03
41513;BME280;27244;59.940;30.280;2023-11-22T00:46:08;102387.28;;;23.53;27.80
41513;BME280;27244;59.940;30.280;2023-11-22T00:48:35;102393.28;;;23.51;27.87
41513;BME280;27244;59.940;30.280;2023-11-22T00:51:03;102379.22;;;23.51;27.86
41513;BME280;27244;59.940;30.280;2023-11-22T00:53:34;102381.25;;;23.51;27.74
41513;BME280;27244;59.940;30.280;2023-11-22T00:56:12;102371.19;;;23.50;27.65
41513;BME280;27244;59.940;30.280;2023-11-22T00:58:39;102381.63;;;23.49;27.54
41513;BME280;27244;59.940;30.280;2023-11-22T01:01:06;102384.06;;;23.47;27.68
41513;BME280;27244;59.940;30.280;2023-11-22T01:03:33;102377.22;;;23.48;27.55
41513;BME280;27244;59.940;30.280;2023-11-22T01:06:00;102384.84;;;23.48;27.50
41513;BME280;27244;59.940;30.280;2023-11-22T01:08:27;102378.44;;;23.47;27.40
41513;BME280;27244;59.940;30.280;2023-11-22T01:10:54;102381.66;;;23.46;27.26
41513;BME280;27244;59.940;30.280;2023-11-22T01:13:24;102373.19;;;23.46;27.28
41513;BME280;27244;59.940;30.280;2023-11-22T01:15:51;102369.56;;;23.45;27.24
41513;BME280;27244;59.940;30.280;2023-11-22T01:18:18;102364.75;;;23.46;27.39
41513;BME280;27244;59.940;30.280;2023-11-22T01:20:45;102366.38;;;23.47;27.47
41513;BME280;27244;59.940;30.280;2023-11-22T01:23:12;102370.38;;;23.46;27.46
41513;BME280;27244;59.940;30.280;2023-11-22T01:25:39;102362.75;;;23.46;27.31
41513;BME280;27244;59.940;30.280;2023-11-22T01:28:09;102378.81;;;23.46;27.27
41513;BME280;27244;59.940;30.280;2023-11-22T01:30:38;102382.44;;;23.46;27.26
41513;BME280;27244;59.940;30.280;2023-11-22T01:33:05;102373.19;;;23.46;27.27
41513;BME280;27244;59.940;30.280;2023-11-22T01:35:32;102383.25;;;23.47;27.37
41513;BME280;27244;59.940;30.280;2023-11-22T01:37:59;102383.25;;;23.47;27.28
41513;BME280;27244;59.940;30.280;2023-11-22T01:40:29;102376.00;;;23.46;27.40
41513;BME280;27244;59.940;30.280;2023-11-22T01:42:59;102381.66;;;23.46;27.35
41513;BME280;27244;59.940;30.280;2023-11-22T01:45:27;102380.84;;;23.45;27.48
41513;BME280;27244;59.940;30.280;2023-11-22T01:47:56;102375.19;;;23.45;27.48
41513;BME280;27244;59.940;30.280;2023-11-22T01:50:23;102374.41;;;23.45;27.26
41513;BME280;27244;59.940;30.280;2023-11-22T01:52:51;102376.41;;;23.44;27.22
41513;BME280;27244;59.940;30.280;2023-11-22T01:55:18;102388.91;;;23.43;27.31
41513;BME280;27244;59.940;30.280;2023-11-22T01:57:45;102390.91;;;23.43;26.97
41513;BME280;27244;59.940;30.280;2023-11-22T02:00:12;102386.88;;;23.44;27.16
41513;BME280;27244;59.940;30.280;2023-11-22T02:02:40;102392.09;;;23.42;27.01
41513;BME280;27244;59.940;30.280;2023-11-22T02:05:09;102383.66;;;23.42;26.94
41513;BME280;27244;59.940;30.280;2023-11-22T02:07:37;102384.03;;;23.40;26.90
41513;BME280;27244;59.940;30.280;2023-11-22T02:10:06;102391.69;;;23.40;26.90
41513;BME280;27244;59.940;30.280;2023-11-22T02:12:33;102397.72;;;23.38;26.91
41513;BME280;27244;59.940;30.280;2023-11-22T02:14:59;102397.72;;;23.38;26.84
41513;BME280;27244;59.940;30.280;2023-11-22T02:17:29;102395.28;;;23.37;26.60
41513;BME280;27244;59.940;30.280;2023-11-22T02:19:56;102395.69;;;23.35;26.68
41513;BME280;27244;59.940;30.280;2023-11-22T02:22:25;102398.50;;;23.35;26.44
41513;BME280;27244;59.940;30.280;2023-11-22T02:24:53;102399.72;;;23.34;26.49
41513;BME280;27244;59.940;30.280;2023-11-22T02:27:20;102404.16;;;23.35;26.33
41513;BME280;27244;59.940;30.280;2023-11-22T02:29:47;102400.91;;;23.33;26.27
41513;BME280;27244;59.940;30.280;2023-11-22T02:32:14;102398.50;;;23.32;26.36
41513;BME280;27244;59.940;30.280;2023-11-22T02:34:41;102394.50;;;23.33;26.30
41513;BME280;27244;59.940;30.280;2023-11-22T02:37:07;102393.28;;;23.30;26.14
41513;BME280;27244;59.940;30.280;2023-11-22T02:39:37;102396.09;;;23.30;26.14
41513;BME280;27244;59.940;30.280;2023-11-22T02:42:10;102392.88;;;23.28;26.23
41513;BME280;27244;59.940;30.280;2023-11-22T02:44:36;102389.25;;;23.28;25.90
41513;BME280;27244;59.940;30.280;2023-11-22T02:47:04;102395.28;;;23.26;25.94
41513;BME280;27244;59.940;30.280;2023-11-22T02:49:34;102390.47;;;23.27;25.99
41513;BME280;27244;59.940;30.280;2023-11-22T02:52:02;102386.06;;;23.26;25.74
41513;BME280;27244;59.940;30.280;2023-11-22T02:54:29;102384.03;;;23.26;25.74
41513;BME280;27244;59.940;30.280;2023-11-22T02:56:55;102371.56;;;23.24;25.60
41513;BME280;27244;59.940;30.280;2023-11-22T02:59:24;102373.19;;;23.25;25.62
41513;BME280;27244;59.940;30.280;2023-11-22T03:01:51;102370.75;;;23.23;25.54
41513;BME280;27244;59.940;30.280;2023-11-22T03:04:17;102372.75;;;23.23;25.36
41513;BME280;27244;59.940;30.280;2023-11-22T03:06:47;102371.16;;;23.22;25.47
41513;BME280;27244;59.940;30.280;2023-11-22T03:09:14;102373.97;;;23.22;25.54
41513;BME280;27244;59.940;30.280;2023-11-22T03:11:41;102378.00;;;23.21;25.48
41513;BME280;27244;59.940;30.280;2023-11-22T03:14:07;102376.38;;;23.20;25.34
41513;BME280;27244;59.940;30.280;2023-11-22T03:16:37;102380.00;;;23.20;25.47
41513;BME280;27244;59.940;30.280;2023-11-22T03:19:05;102387.66;;;23.20;25.17
41513;BME280;27244;59.940;30.280;2023-11-22T03:21:32;102377.59;;;23.19;25.29
41513;BME280;27244;59.940;30.280;2023-11-22T03:24:01;102376.00;;;23.18;25.16
41513;BME280;27244;59.940;30.280;2023-11-22T03:26:29;102361.91;;;23.18;25.15
41513;BME280;27244;59.940;30.280;2023-11-22T03:28:56;102361.91;;;23.18;25.04
41513;BME280;27244;59.940;30.280;2023-11-22T03:31:22;102371.56;;;23.17;25.01
41513;BME280;27244;59.940;30.280;2023-11-22T03:33:51;102367.94;;;23.16;25.07
41513;BME280;27244;59.940;30.280;2023-11-22T03:36:17;102363.50;;;23.15;24.85
41513;BME280;27244;59.940;30.280;2023-11-22T03:38:45;102347.84;;;23.14;24.98
41513;BME280;27244;59.940;30.280;2023-11-22T03:41:12;102358.28;;;23.14;24.89
41513;BME280;27244;59.940;30.280;2023-11-22T03:43:39;102356.28;;;23.14;24.86
41513;BME280;27244;59.940;30.280;2023-11-22T03:46:05;102359.09;;;23.14;24.81
41513;BME280;27244;59.940;30.280;2023-11-22T03:48:32;102351.84;;;23.13;24.60
41513;BME280;27244;59.940;30.280;2023-11-22T03:51:01;102365.13;;;23.13;24.76
41513;BME280;27244;59.940;30.280;2023-11-22T03:53:28;102358.69;;;23.12;24.73
41513;BME280;27244;59.940;30.280;2023-11-22T03:55:55;102352.25;;;23.12;24.57
41513;BME280;27244;59.940;30.280;2023-11-22T03:58:22;102359.09;;;23.11;24.62
41513;BME280;27244;59.940;30.280;2023-11-22T04:00:48;102359.91;;;23.11;24.58
41513;BME280;27244;59.940;30.280;2023-11-22T04:03:16;102370.34;;;23.11;24.49
41513;BME280;27244;59.940;30.280;2023-11-22T04:05:44;102363.91;;;23.10;24.47
41513;BME280;27244;59.940;30.280;2023-11-22T04:08:12;102367.53;;;23.11;24.41
41513;BME280;27244;59.940;30.280;2023-11-22T04:10:39;102355.88;;;23.09;24.26
41513;BME280;27244;59.940;30.280;2023-11-22T04:13:06;102359.91;;;23.08;24.42
41513;BME280;27244;59.940;30.280;2023-11-22T04:15:32;102359.91;;;23.08;24.30
41513;BME280;27244;59.940;30.280;2023-11-22T04:17:59;102354.28;;;23.08;24.27
41513;BME280;27244;59.940;30.280;2023-11-22T04:20:31;102353.47;;;23.07;24.17
41513;BME280;27244;59.940;30.280;2023-11-22T04:22:58;102356.69;;;23.05;24.27
41513;BME280;27244;59.940;30.280;2023-11-22T04:25:28;102349.84;;;23.07;24.19
41513;BME280;27244;59.940;30.280;2023-11-22T04:27:57;102363.50;;;23.04;24.17
41513;BME280;27244;59.940;30.280;2023-11-22T04:30:25;102357.88;;;23.04;24.15
41513;BME280;27244;59.940;30.280;2023-11-22T04:32:51;102359.50;;;23.05;24.16
41513;BME280;27244;59.940;30.280;2023-11-22T04:35:18;102357.88;;;23.04;24.08
41513;BME280;27244;59.940;30.280;2023-11-22T04:37:45;102359.09;;;23.03;24.19
41513;BME280;27244;59.940;30.280;2023-11-22T04:40:12;102354.28;;;23.04;24.12
41513;BME280;27244;59.940;30.280;2023-11-22T04:42:41;102355.06;;;23.04;23.95
41513;BME280;27244;59.940;30.280;2023-11-22T04:45:08;102349.84;;;23.03;23.82
41513;BME280;27244;59.940;30.280;2023-11-22T04:47:35;102358.28;;;23.03;23.89
41513;BME280;27244;59.940;30.280;2023-11-22T04:50:01;102367.53;;;23.03;23.92
41513;BME280;27244;59.940;30.280;2023-11-22T04:52:28;102362.31;;;23.02;23.92
41513;BME280;27244;59.940;30.280;2023-11-22T04:54:58;102355.88;;;23.01;23.75
41513;BME280;27244;59.940;30.280;2023-11-22T04:57:24;102355.88;;;23.01;23.80
41513;BME280;27244;59.940;30.280;2023-11-22T04:59:53;102355.88;;;23.01;23.81
41513;BME280;27244;59.940;30.280;2023-11-22T05:02:19;102349.44;;;23.01;23.80
41513;BME280;27244;59.940;30.280;2023-11-22T05:04:46;102349.44;;;22.97;23.72
41513;BME280;27244;59.940;30.280;2023-11-22T05:07:14;102344.59;;;22.98;23.69
41513;BME280;27244;59.940;30.280;2023-11-22T05:09:41;102342.59;;;22.98;23.71
41513;BME280;27244;59.940;30.280;2023-11-22T05:12:09;102343.03;;;22.97;23.64
41513;BME280;27244;59.940;30.280;2023-11-22T05:14:35;102345.03;;;22.96;23.58
41513;BME280;27244;59.940;30.280;2023-11-22T05:17:04;102351.47;;;22.97;23.45
41513;BME280;27244;59.940;30.280;2023-11-22T05:19:31;102345.03;;;22.96;23.37
41513;BME280;27244;59.940;30.280;2023-11-22T05:21:57;102345.03;;;22.96;23.45
41513;BME280;27244;59.940;30.280;2023-11-22T05:24:24;102347.84;;;22.96;23.42
41513;BME280;27244;59.940;30.280;2023-11-22T05:26:51;102343.41;;;22.95;23.38
41513;BME280;27244;59.940;30.280;2023-11-22T05:29:20;102339.78;;;22.95;23.37
41513;BME280;27244;59.940;30.280;2023-11-22T05:31:47;102330.53;;;22.94;23.21
41513;BME280;27244;59.940;30.280;2023-11-22T05:34:16;102333.34;;;22.94;23.32
41513;BME280;27244;59.940;30.280;2023-11-22T05:36:42;102332.53;;;22.94;23.30
41513;BME280;27244;59.940;30.280;2023-11-22T05:39:09;102337.34;;;22.93;23.37
41513;BME280;27244;59.940;30.280;2023-11-22T05:41:37;102336.59;;;22.93;23.21
41513;BME280;27244;59.940;30.280;2023-11-22T05:44:04;102327.31;;;22.92;23.29
41513;BME280;27244;59.940;30.280;2023-11-22T05:46:31;102327.31;;;22.92;23.27
41513;BME280;27244;59.940;30.280;2023-11-22T05:48:58;102330.16;;;22.92;23.38
41513;BME280;27244;59.940;30.280;2023-11-22T05:51:27;102334.16;;;22.91;22.97
41513;BME280;27244;59.940;30.280;2023-11-22T05:53:55;102335.34;;;22.90;23.04
41513;BME280;27244;59.940;30.280;2023-11-22T05:56:22;102334.16;;;22.91;23.03
41513;BME280;27244;59.940;30.280;2023-11-22T05:58:49;102333.34;;;22.91;23.10
41513;BME280;27244;59.940;30.280;2023-11-22T06:01:16;102331.72;;;22.90;23.00
41513;BME280;27244;59.940;30.280;2023-11-22T06:03:43;102330.94;;;22.89;23.14
41513;BME280;27244;59.940;30.280;2023-11-22T06:06:09;102336.56;;;22.89;22.93
41513;BME280;27244;59.940;30.280;2023-11-22T06:08:37;102336.56;;;22.89;23.07
41513;BME280;27244;59.940;30.280;2023-11-22T06:11:04;102323.69;;;22.88;22.93
41513;BME280;27244;59.940;30.280;2023-11-22T06:13:31;102328.13;;;22.89;22.87
41513;BME280;27244;59.940;30.280;2023-11-22T06:15:58;102328.53;;;22.88;22.85
41513;BME280;27244;59.940;30.280;2023-11-22T06:18:24;102341.41;;;22.89;22.85
41513;BME280;27244;59.940;30.280;2023-11-22T06:20:55;102334.16;;;22.88;22.88
41513;BME280;27244;59.940;30.280;2023-11-22T06:23:22;102336.16;;;22.87;22.59
41513;BME280;27244;59.940;30.280;2023-11-22T06:25:50;102335.34;;;22.87;22.78
41513;BME280;27244;59.940;30.280;2023-11-22T06:28:17;102339.78;;;22.88;22.72
41513;BME280;27244;59.940;30.280;2023-11-22T06:30:44;102337.34;;;22.86;22.79
41513;BME280;27244;59.940;30.280;2023-11-22T06:33:11;102345.78;;;22.86;22.69
41513;BME280;27244;59.940;30.280;2023-11-22T06:35:38;102338.97;;;22.87;22.60
41513;BME280;27244;59.940;30.280;2023-11-22T06:38:05;102344.59;;;22.87;22.75
41513;BME280;27244;59.940;30.280;2023-11-22T06:40:32;102335.34;;;22.87;22.66
41513;BME280;27244;59.940;30.280;2023-11-22T06:43:00;102337.34;;;22.86;22.58
41513;BME280;27244;59.940;30.280;2023-11-22T06:45:31;102330.13;;;22.85;22.56
41513;BME280;27244;59.940;30.280;2023-11-22T06:47:58;102332.94;;;22.85;22.67
41513;BME280;27244;59.940;30.280;2023-11-22T06:50:25;102326.91;;;22.83;22.64
41513;BME280;27244;59.940;30.280;2023-11-22T06:52:52;102327.72;;;22.84;22.83
41513;BME280;27244;59.940;30.280;2023-11-22T06:55:19;102320.88;;;22.85;22.67
41513;BME280;27244;59.940;30.280;2023-11-22T06:57:47;102315.66;;;22.87;22.62
41513;BME280;27244;59.940;30.280;2023-11-22T07:00:17;102320.47;;;22.90;22.81
41513;BME280;27244;59.940;30.280;2023-11-22T07:02:45;102321.28;;;22.90;22.78
41513;BME280;27244;59.940;30.280;2023-11-22T07:05:12;102317.28;;;22.91;22.94
41513;BME280;27244;59.940;30.280;2023-11-22T07:07:39;102315.25;;;22.92;22.89
41513;BME280;27244;59.940;30.280;2023-11-22T07:10:06;102312.44;;;22.92;23.03
41513;BME280;27244;59.940;30.280;2023-11-22T07:12:33;102314.84;;;22.93;23.09
41513;BME280;27244;59.940;30.280;2023-11-22T07:15:01;102309.63;;;22.92;23.21
41513;BME280;27244;59.940;30.280;2023-11-22T07:17:29;102309.63;;;22.92;23.23
41513;BME280;27244;59.940;30.280;2023-11-22T07:20:10;102317.28;;;22.91;23.65
41513;BME280;27244;59.940;30.280;2023-11-22T07:22:41;102309.63;;;22.92;23.54
41513;BME280;27244;59.940;30.280;2023-11-22T07:25:09;102316.06;;;22.92;23.67
41513;BME280;27244;59.940;30.280;2023-11-22T07:27:43;102312.44;;;22.92;23.57
41513;BME280;27244;59.940;30.280;2023-11-22T07:30:11;102306.00;;;22.91;23.67
41513;BME280;27244;59.940;30.280;2023-11-22T07:32:40;102311.66;;;22.91;23.70
41513;BME280;27244;59.940;30.280;2023-11-22T07:35:07;102295.56;;;22.92;23.74
41513;BME280;27244;59.940;30.280;2023-11-22T07:37:34;102302.81;;;22.93;23.96
41513;BME280;27244;59.940;30.280;2023-11-22T07:40:01;102303.59;;;22.93;24.11
41513;BME280;27244;59.940;30.280;2023-11-22T07:42:29;102297.97;;;22.93;24.07
41513;BME280;27244;59.940;30.280;2023-11-22T07:44:56;102299.56;;;22.94;24.29
41513;BME280;27244;59.940;30.280;2023-11-22T07:47:23;102287.13;;;22.95;24.30
41513;BME280;27244;59.940;30.280;2023-11-22T07:49:51;102292.75;;;22.95;24.52
41513;BME280;27244;59.940;30.280;2023-11-22T07:52:18;102285.94;;;22.96;24.43
41513;BME280;27244;59.940;30.280;2023-11-22T07:54:44;102281.88;;;22.97;24.46
41513;BME280;27244;59.940;30.280;2023-11-22T07:57:11;102279.06;;;22.97;24.60
41513;BME280;27244;59.940;30.280;2023-11-22T07:59:38;102279.88;;;22.98;24.71
41513;BME280;27244;59.940;30.280;2023-11-22T08:02:05;102273.84;;;22.99;24.83
41513;BME280;27244;59.940;30.280;2023-11-22T08:04:38;102275.06;;;22.98;24.73
41513;BME280;27244;59.940;30.280;2023-11-22T08:07:07;102275.88;;;22.99;24.80
41513;BME280;27244;59.940;30.280;2023-11-22T08:09:33;102275.06;;;22.98;24.95
41513;BME280;27244;59.940;30.280;2023-11-22T08:12:02;102276.25;;;23.01;25.03
41513;BME280;27244;59.940;30.280;2023-11-22T08:14:30;102269.84;;;23.00;25.08
41513;BME280;27244;59.940;30.280;2023-11-22T08:16:56;102270.63;;;23.01;25.02
41513;BME280;27244;59.940;30.280;2023-11-22T08:19:23;102271.44;;;23.01;25.18
41513;BME280;27244;59.940;30.280;2023-11-22T08:21:50;102271.44;;;23.01;25.34
41513;BME280;27244;59.940;30.280;2023-11-22T08:24:18;102272.25;;;23.02;25.30
41513;BME280;27244;59.940;30.280;2023-11-22T08:26:45;102272.25;;;23.02;25.17
41513;BME280;27244;59.940;30.280;2023-11-22T08:29:12;102273.84;;;23.03;25.43
41513;BME280;27244;59.940;30.280;2023-11-22T08:31:41;102275.88;;;23.02;25.42
41513;BME280;27244;59.940;30.280;2023-11-22T08:34:08;102271.03;;;23.03;25.47
41513;BME280;27244;59.940;30.280;2023-11-22T08:36:36;102261.78;;;23.02;25.71
41513;BME280;27244;59.940;30.280;2023-11-22T08:39:04;102261.78;;;23.02;25.60
41513;BME280;27244;59.940;30.280;2023-11-22T08:41:32;102262.59;;;23.03;25.67
41513;BME280;27244;59.940;30.280;2023-11-22T08:44:00;102258.97;;;23.02;25.72
41513;BME280;27244;59.940;30.280;2023-11-22T08:46:26;102252.16;;;23.03;25.87
41513;BME280;27244;59.940;30.280;2023-11-22T08:48:53;102247.72;;;23.02;25.91
41513;BME280;27244;59.940;30.280;2023-11-22T08:51:22;102248.53;;;23.03;25.79
41513;BME280;27244;59.940;30.280;2023-11-22T08:53:49;102239.28;;;23.02;25.85
41513;BME280;27244;59.940;30.280;2023-11-22T08:56:16;102229.63;;;23.03;25.98
41513;BME280;27244;59.940;30.280;2023-11-22T08:58:47;102231.63;;;23.03;25.97
41513;BME280;27244;59.940;30.280;2023-11-22T09:01:14;102232.03;;;23.05;25.93
41513;BME280;27244;59.940;30.280;2023-11-22T09:03:41;102231.22;;;23.04;26.12
41513;BME280;27244;59.940;30.280;2023-11-22T09:06:08;102235.66;;;23.05;26.07
41513;BME280;27244;59.940;30.280;2023-11-22T09:08:35;102232.84;;;23.05;26.10
41513;BME280;27244;59.940;30.280;2023-11-22T09:11:03;102215.56;;;23.07;26.16
41513;BME280;27244;59.940;30.280;2023-11-22T09:13:31;102224.00;;;23.07;26.30
41513;BME280;27244;59.940;30.280;2023-11-22T09:16:00;102208.69;;;23.08;26.28
41513;BME280;27244;59.940;30.280;2023-11-22T09:18:26;102213.53;;;23.08;26.16
41513;BME280;27244;59.940;30.280;2023-11-22T09:20:53;102212.31;;;23.09;26.42
41513;BME280;27244;59.940;30.280;2023-11-22T09:23:20;102212.31;;;23.09;26.37
41513;BME280;27244;59.940;30.280;2023-11-22T09:25:47;102208.69;;;23.08;26.37
41513;BME280;27244;59.940;30.280;2023-11-22T09:28:14;102210.31;;;23.09;26.30
41513;BME280;27244;59.940;30.280;2023-11-22T09:30:41;102198.25;;;23.09;26.49
41513;BME280;27244;59.940;30.280;2023-11-22T09:33:10;102195.44;;;23.09;26.49
41513;BME280;27244;59.940;30.280;2023-11-22T09:35:40;102197.44;;;23.08;26.57
41513;BME280;27244;59.940;30.280;2023-11-22T09:38:08;102187.78;;;23.09;26.43
41513;BME280;27244;59.940;30.280;2023-11-22T09:40:38;102194.22;;;23.10;26.72
41513;BME280;27244;59.940;30.280;2023-11-22T09:43:07;102177.34;;;23.10;26.68
41513;BME280;27244;59.940;30.280;2023-11-22T09:45:36;102178.16;;;23.10;26.72
41513;BME280;27244;59.940;30.280;2023-11-22T09:48:05;102182.97;;;23.10;26.71
41513;BME280;27244;59.940;30.280;2023-11-22T09:50:39;102171.72;;;23.10;26.57
41513;BME280;27244;59.940;30.280;2023-11-22T09:53:10;102173.31;;;23.11;26.78
41513;BME280;27244;59.940;30.280;2023-11-22T09:55:38;102173.31;;;23.11;26.86
41513;BME280;27244;59.940;30.280;2023-11-22T09:58:08;102165.69;;;23.11;26.93
41513;BME280;27244;59.940;30.280;2023-11-22T10:00:36;102169.69;;;23.14;27.09
41513;BME280;27244;59.940;30.280;2023-11-22T10:03:03;102158.44;;;23.14;27.03
41513;BME280;27244;59.940;30.280;2023-11-22T10:05:30;102158.00;;;23.15;27.03
41513;BME280;27244;59.940;30.280;2023-11-22T10:07:58;102150.38;;;23.16;27.15
41513;BME280;27244;59.940;30.280;2023-11-22T10:10:26;102149.16;;;23.17;27.23
41513;BME280;27244;59.940;30.280;2023-11-22T10:12:57;102147.16;;;23.17;27.43
41513;BME280;27244;59.940;30.280;2023-11-22T10:15:27;102144.34;;;23.17;27.40
41513;BME280;27244;59.940;30.280;2023-11-22T10:17:55;102145.97;;;23.18;27.57
41513;BME280;27244;59.940;30.280;2023-11-22T10:20:23;102157.22;;;23.18;27.49
41513;BME280;27244;59.940;30.280;2023-11-22T10:22:51;102158.81;;;23.19;27.56
41513;BME280;27244;59.940;30.280;2023-11-22T10:25:20;102153.97;;;23.20;27.55
41513;BME280;27244;59.940;30.280;2023-11-22T10:27:48;102144.34;;;23.21;27.53
41513;BME280;27244;59.940;30.280;2023-11-22T10:30:17;102138.69;;;23.21;27.71
41513;BME280;27244;59.940;30.280;2023-11-22T10:32:44;102137.09;;;23.20;27.69
41513;BME280;27244;59.940;30.280;2023-11-22T10:35:11;102135.06;;;23.20;27.66
41513;BME280;27244;59.940;30.280;2023-11-22T10:37:40;102133.88;;;23.21;27.91
41513;BME280;27244;59.940;30.280;2023-11-22T10:40:10;102135.88;;;23.21;27.91
41513;BME280;27244;59.940;30.280;2023-11-22T10:42:40;102127.44;;;23.21;27.94
41513;BME280;27244;59.940;30.280;2023-11-22T10:45:07;102125.44;;;23.21;27.99
41513;BME280;27244;59.940;30.280;2023-11-22T10:47:35;102120.59;;;23.22;27.93
41513;BME280;27244;59.940;30.280;2023-11-22T10:50:03;102119.00;;;23.21;28.08
41513;BME280;27244;59.940;30.280;2023-11-22T10:52:31;102111.34;;;23.21;28.10
41513;BME280;27244;59.940;30.280;2023-11-22T10:55:00;102114.97;;;23.22;28.07
41513;BME280;27244;59.940;30.280;2023-11-22T10:57:29;102108.53;;;23.21;28.00
41513;BME280;27244;59.940;30.280;2023-11-22T11:00:00;102107.34;;;23.22;28.21
41513;BME280;27244;59.940;30.280;2023-11-22T11:02:28;102098.47;;;23.24;28.09
41513;BME280;27244;59.940;30.280;2023-11-22T11:04:59;102109.72;;;23.24;28.28
41513;BME280;27244;59.940;30.280;2023-11-22T11:07:27;102099.28;;;23.24;28.29
41513;BME280;27244;59.940;30.280;2023-11-22T11:09:57;102102.09;;;23.24;28.21
41513;BME280;27244;59.940;30.280;2023-11-22T11:12:24;102110.53;;;23.24;28.28
41513;BME280;27244;59.940;30.280;2023-11-22T11:14:51;102097.25;;;23.25;28.46
41513;BME280;27244;59.940;30.280;2023-11-22T11:17:20;102096.06;;;23.26;28.53
41513;BME280;27244;59.940;30.280;2023-11-22T11:19:47;102086.81;;;23.25;28.47
41513;BME280;27244;59.940;30.280;2023-11-22T11:22:14;102079.16;;;23.26;28.47
41513;BME280;27244;59.940;30.280;2023-11-22T11:24:41;102081.19;;;23.25;28.34
41513;BME280;27244;59.940;30.280;2023-11-22T11:27:10;102079.94;;;23.26;28.42
41513;BME280;27244;59.940;30.280;2023-11-22T11:29:36;102078.38;;;23.25;28.64
41513;BME280;27244;59.940;30.280;2023-11-22T11:32:09;102075.13;;;23.27;28.61
41513;BME280;27244;59.940;30.280;2023-11-22T11:34:41;102061.84;;;23.27;28.69
41513;BME280;27244;59.940;30.280;2023-11-22T11:37:13;102054.22;;;23.28;28.61
41513;BME280;27244;59.940;30.280;2023-11-22T11:39:41;102059.84;;;23.28;28.76
41513;BME280;27244;59.940;30.280;2023-11-22T11:42:11;102069.09;;;23.28;28.48
41513;BME280;27244;59.940;30.280;2023-11-22T11:44:50;102058.63;;;23.29;28.55
41513;BME280;27244;59.940;30.280;2023-11-22T11:47:17;102048.59;;;23.28;28.66
41513;BME280;27244;59.940;30.280;2023-11-22T11:49:46;102059.44;;;23.29;28.68
41513;BME280;27244;59.940;30.280;2023-11-22T11:52:15;102049.38;;;23.28;28.93
41513;BME280;27244;59.940;30.280;2023-11-22T11:54:42;102044.13;;;23.30;28.66
41513;BME280;27244;59.940;30.280;2023-11-22T11:57:09;102046.13;;;23.30;28.74
41513;BME280;27244;59.940;30.280;2023-11-22T11:59:35;102046.94;;;23.30;28.84
41513;BME280;27244;59.940;30.280;2023-11-22T12:02:03;102032.06;;;23.30;28.68
41513;BME280;27244;59.940;30.280;2023-11-22T12:04:30;102030.06;;;23.30;28.80
41513;BME280;27244;59.940;30.280;2023-11-22T12:06:59;102035.69;;;23.30;28.81
41513;BME280;27244;59.940;30.280;2023-11-22T12:09:25;102023.63;;;23.30;28.65
41513;BME280;27244;59.940;30.280;2023-11-22T12:11:53;102018.00;;;23.30;28.85
41513;BME280;27244;59.940;30.280;2023-11-22T12:14:20;102001.09;;;23.30;28.77
41513;BME280;27244;59.940;30.280;2023-11-22T12:16:47;102004.72;;;23.30;28.87
41513;BME280;27244;59.940;30.280;2023-11-22T12:19:23;102013.16;;;23.30;28.91
41513;BME280;27244;59.940;30.280;2023-11-22T12:21:51;102015.97;;;23.30;28.85
41513;BME280;27244;59.940;30.280;2023-11-22T12:24:22;102001.09;;;23.30;28.90
41513;BME280;27244;59.940;30.280;2023-11-22T12:26:49;102006.31;;;23.31;28.81
41513;BME280;27244;59.940;30.280;2023-11-22T12:29:17;101994.69;;;23.29;28.91
41513;BME280;27244;59.940;30.280;2023-11-22T12:31:45;101991.44;;;23.31;28.71
41513;BME280;27244;59.940;30.280;2023-11-22T12:34:12;101981.38;;;23.30;28.83
41513;BME280;27244;59.940;30.280;2023-11-22T12:36:40;101982.19;;;23.30;28.79
41513;BME280;27244;59.940;30.280;2023-11-22T12:39:07;101972.16;;;23.29;28.81
41513;BME280;27244;59.940;30.280;2023-11-22T12:41:43;101973.75;;;23.30;28.85
41513;BME280;27244;59.940;30.280;2023-11-22T12:44:10;101972.94;;;23.30;28.86